sensor_id;sensor_type;location;lat;lon;timestamp;P1;P2;P0
63707;PMS5003;67643;-34.198;22.084;2023-07-13T00:02:26;10;9;
63707;PMS5003;67643;-34.198;22.084;2023-07-13T00:04:55;11;9;
63707;PMS5003;67643;-34.198;22.084;2023-07-13T00:07:23;13;7;
63707;PMS5003;67643;-34.198;22.084;2023-07-13T00:09:51;13;9;
63707;PMS5003;67643;-34.198;22.084;2023-07-13T00:12:24;11;10;
63707;PMS5003;67643;-34.198;22.084;2023-07-13T00:14:53;10;8;
63707;PMS5003;67643;-34.198;22.084;2023-07-13T00:17:24;9;9;
63707;PMS5003;67643;-34.198;22.084;2023-07-13T00:19:54;10;9;
63707;PMS5003;67643;-34.198;22.084;2023-07-13T00:22:23;10;10;
63707;PMS5003;67643;-34.198;22.084;2023-07-13T00:24:52;15;10;
63707;PMS5003;67643;-34.198;22.084;2023-07-13T00:27:21;9;8;
63707;PMS5003;67643;-34.198;22.084;2023-07-13T00:29:49;13;8;
63707;PMS5003;67643;-34.198;22.084;2023-07-13T00:32:18;10;9;
63707;PMS5003;67643;-34.198;22.084;2023-07-13T00:34:46;11;8;
63707;PMS5003;67643;-34.198;22.084;2023-07-13T00:37:15;11;8;
63707;PMS5003;67643;-34.198;22.084;2023-07-13T00:39:44;10;9;
63707;PMS5003;67643;-34.198;22.084;2023-07-13T00:42:13;14;12;
63707;PMS5003;67643;-34.198;22.084;2023-07-13T00:44:41;11;9;
63707;PMS5003;67643;-34.198;22.084;2023-07-13T00:47:27;13;8;
63707;PMS5003;67643;-34.198;22.084;2023-07-13T00:49:55;12;9;
63707;PMS5003;67643;-34.198;22.084;2023-07-13T00:52:24;9;8;
63707;PMS5003;67643;-34.198;22.084;2023-07-13T00:54:53;9;7;
63707;PMS5003;67643;-34.198;22.084;2023-07-13T00:57:24;9;8;
63707;PMS5003;67643;-34.198;22.084;2023-07-13T00:59:55;17;12;
63707;PMS5003;67643;-34.198;22.084;2023-07-13T01:02:27;10;10;
63707;PMS5003;67643;-34.198;22.084;2023-07-13T01:04:56;12;8;
63707;PMS5003;67643;-34.198;22.084;2023-07-13T01:07:25;11;8;
63707;PMS5003;67643;-34.198;22.084;2023-07-13T01:09:53;13;9;
63707;PMS5003;67643;-34.198;22.084;2023-07-13T01:12:22;9;9;
63707;PMS5003;67643;-34.198;22.084;2023-07-13T01:14:56;12;10;
63707;PMS5003;67643;-34.198;22.084;2023-07-13T01:17:26;14;10;
63707;PMS5003;67643;-34.198;22.084;2023-07-13T01:19:55;8;7;
63707;PMS5003;67643;-34.198;22.084;2023-07-13T01:22:24;9;7;
63707;PMS5003;67643;-34.198;22.084;2023-07-13T01:24:54;15;8;
63707;PMS5003;67643;-34.198;22.084;2023-07-13T01:27:23;7;7;
63707;PMS5003;67643;-34.198;22.084;2023-07-13T01:29:53;12;8;
63707;PMS5003;67643;-34.198;22.084;2023-07-13T01:32:22;12;9;
63707;PMS5003;67643;-34.198;22.084;2023-07-13T01:34:51;14;12;
63707;PMS5003;67643;-34.198;22.084;2023-07-13T01:37:21;10;8;
63707;PMS5003;67643;-34.198;22.084;2023-07-13T01:39:50;8;7;
63707;PMS5003;67643;-34.198;22.084;2023-07-13T01:42:18;14;9;
63707;PMS5003;67643;-34.198;22.084;2023-07-13T01:44:47;12;10;
63707;PMS5003;67643;-34.198;22.084;2023-07-13T01:47:16;13;9;
63707;PMS5003;67643;-34.198;22.084;2023-07-13T01:49:44;14;8;
63707;PMS5003;67643;-34.198;22.084;2023-07-13T01:52:12;12;8;
63707;PMS5003;67643;-34.198;22.084;2023-07-13T01:54:40;14;11;
63707;PMS5003;67643;-34.198;22.084;2023-07-13T01:57:09;11;7;
63707;PMS5003;67643;-34.198;22.084;2023-07-13T01:59:37;12;9;
63707;PMS5003;67643;-34.198;22.084;2023-07-13T02:02:06;15;10;
63707;PMS5003;67643;-34.198;22.084;2023-07-13T02:04:34;10;10;
63707;PMS5003;67643;-34.198;22.084;2023-07-13T02:07:03;11;7;
63707;PMS5003;67643;-34.198;22.084;2023-07-13T02:09:32;17;9;
63707;PMS5003;67643;-34.198;22.084;2023-07-13T02:12:00;10;8;
63707;PMS5003;67643;-34.198;22.084;2023-07-13T02:14:28;14;8;
63707;PMS5003;67643;-34.198;22.084;2023-07-13T02:16:57;8;8;
63707;PMS5003;67643;-34.198;22.084;2023-07-13T02:19:25;11;7;
63707;PMS5003;67643;-34.198;22.084;2023-07-13T02:21:54;12;7;
63707;PMS5003;67643;-34.198;22.084;2023-07-13T02:24:22;10;8;
63707;PMS5003;67643;-34.198;22.084;2023-07-13T02:26:51;7;7;
63707;PMS5003;67643;-34.198;22.084;2023-07-13T02:29:20;8;8;
63707;PMS5003;67643;-34.198;22.084;2023-07-13T02:31:49;12;8;
63707;PMS5003;67643;-34.198;22.084;2023-07-13T02:34:17;7;7;
63707;PMS5003;67643;-34.198;22.084;2023-07-13T02:36:45;10;8;
63707;PMS5003;67643;-34.198;22.084;2023-07-13T02:39:14;12;7;
63707;PMS5003;67643;-34.198;22.084;2023-07-13T02:41:42;16;7;
63707;PMS5003;67643;-34.198;22.084;2023-07-13T02:44:12;12;7;
63707;PMS5003;67643;-34.198;22.084;2023-07-13T02:46:41;15;12;
63707;PMS5003;67643;-34.198;22.084;2023-07-13T02:49:09;8;7;
63707;PMS5003;67643;-34.198;22.084;2023-07-13T02:51:39;11;9;
63707;PMS5003;67643;-34.198;22.084;2023-07-13T02:54:08;14;9;
63707;PMS5003;67643;-34.198;22.084;2023-07-13T02:56:36;11;8;
63707;PMS5003;67643;-34.198;22.084;2023-07-13T02:59:05;13;7;
63707;PMS5003;67643;-34.198;22.084;2023-07-13T03:01:34;9;8;
63707;PMS5003;67643;-34.198;22.084;2023-07-13T03:04:03;18;8;
63707;PMS5003;67643;-34.198;22.084;2023-07-13T03:06:32;11;7;
63707;PMS5003;67643;-34.198;22.084;2023-07-13T03:09:01;16;12;
63707;PMS5003;67643;-34.198;22.084;2023-07-13T03:11:29;11;8;
63707;PMS5003;67643;-34.198;22.084;2023-07-13T03:13:57;14;9;
63707;PMS5003;67643;-34.198;22.084;2023-07-13T03:16:26;8;7;
63707;PMS5003;67643;-34.198;22.084;2023-07-13T03:18:55;10;7;
63707;PMS5003;67643;-34.198;22.084;2023-07-13T03:21:24;10;9;
63707;PMS5003;67643;-34.198;22.084;2023-07-13T03:23:52;19;11;
63707;PMS5003;67643;-34.198;22.084;2023-07-13T03:26:20;13;9;
63707;PMS5003;67643;-34.198;22.084;2023-07-13T03:28:50;22;12;
63707;PMS5003;67643;-34.198;22.084;2023-07-13T03:31:19;17;8;
63707;PMS5003;67643;-34.198;22.084;2023-07-13T03:33:49;14;9;
63707;PMS5003;67643;-34.198;22.084;2023-07-13T03:36:18;10;9;
63707;PMS5003;67643;-34.198;22.084;2023-07-13T03:38:50;8;5;
63707;PMS5003;67643;-34.198;22.084;2023-07-13T03:41:20;17;13;
63707;PMS5003;67643;-34.198;22.084;2023-07-13T03:43:49;13;10;
63707;PMS5003;67643;-34.198;22.084;2023-07-13T03:46:18;14;9;
63707;PMS5003;67643;-34.198;22.084;2023-07-13T03:48:47;10;8;
63707;PMS5003;67643;-34.198;22.084;2023-07-13T03:51:16;9;8;
63707;PMS5003;67643;-34.198;22.084;2023-07-13T03:53:46;13;10;
63707;PMS5003;67643;-34.198;22.084;2023-07-13T03:56:15;10;8;
63707;PMS5003;67643;-34.198;22.084;2023-07-13T03:58:46;12;10;
63707;PMS5003;67643;-34.198;22.084;2023-07-13T04:01:17;12;9;
63707;PMS5003;67643;-34.198;22.084;2023-07-13T04:03:46;11;8;
63707;PMS5003;67643;-34.198;22.084;2023-07-13T04:06:16;13;10;
63707;PMS5003;67643;-34.198;22.084;2023-07-13T04:08:45;15;12;
63707;PMS5003;67643;-34.198;22.084;2023-07-13T06:10:21;20;14;
63707;PMS5003;67643;-34.198;22.084;2023-07-13T06:12:50;22;14;
63707;PMS5003;67643;-34.198;22.084;2023-07-13T06:15:18;18;14;
63707;PMS5003;67643;-34.198;22.084;2023-07-13T06:17:46;16;12;
63707;PMS5003;67643;-34.198;22.084;2023-07-13T06:20:15;14;12;
63707;PMS5003;67643;-34.198;22.084;2023-07-13T06:22:43;12;12;
63707;PMS5003;67643;-34.198;22.084;2023-07-13T06:25:11;13;12;
63707;PMS5003;67643;-34.198;22.084;2023-07-13T06:27:40;16;12;
63707;PMS5003;67643;-34.198;22.084;2023-07-13T06:30:09;17;13;
63707;PMS5003;67643;-34.198;22.084;2023-07-13T06:32:38;14;12;
63707;PMS5003;67643;-34.198;22.084;2023-07-13T06:35:07;10;10;
63707;PMS5003;67643;-34.198;22.084;2023-07-13T06:37:35;15;15;
63707;PMS5003;67643;-34.198;22.084;2023-07-13T06:40:04;19;14;
63707;PMS5003;67643;-34.198;22.084;2023-07-13T06:42:33;19;15;
63707;PMS5003;67643;-34.198;22.084;2023-07-13T06:45:02;13;12;
63707;PMS5003;67643;-34.198;22.084;2023-07-13T06:47:31;16;11;
63707;PMS5003;67643;-34.198;22.084;2023-07-13T06:49:59;15;13;
63707;PMS5003;67643;-34.198;22.084;2023-07-13T06:52:33;15;14;
63707;PMS5003;67643;-34.198;22.084;2023-07-13T06:55:01;15;13;
63707;PMS5003;67643;-34.198;22.084;2023-07-13T06:57:30;17;10;
63707;PMS5003;67643;-34.198;22.084;2023-07-13T06:59:58;15;13;
63707;PMS5003;67643;-34.198;22.084;2023-07-13T07:02:27;17;10;
63707;PMS5003;67643;-34.198;22.084;2023-07-13T07:04:56;15;12;
63707;PMS5003;67643;-34.198;22.084;2023-07-13T07:07:24;20;14;
63707;PMS5003;67643;-34.198;22.084;2023-07-13T07:09:53;15;14;
63707;PMS5003;67643;-34.198;22.084;2023-07-13T07:12:22;17;12;
63707;PMS5003;67643;-34.198;22.084;2023-07-13T07:14:51;16;12;
63707;PMS5003;67643;-34.198;22.084;2023-07-13T07:17:19;14;13;
63707;PMS5003;67643;-34.198;22.084;2023-07-13T07:19:48;19;12;
63707;PMS5003;67643;-34.198;22.084;2023-07-13T07:22:16;12;10;
63707;PMS5003;67643;-34.198;22.084;2023-07-13T07:24:44;10;10;
63707;PMS5003;67643;-34.198;22.084;2023-07-13T07:27:13;19;11;
63707;PMS5003;67643;-34.198;22.084;2023-07-13T07:29:41;13;7;
63707;PMS5003;67643;-34.198;22.084;2023-07-13T07:32:09;18;10;
63707;PMS5003;67643;-34.198;22.084;2023-07-13T07:34:37;13;11;
63707;PMS5003;67643;-34.198;22.084;2023-07-13T07:37:06;12;12;
63707;PMS5003;67643;-34.198;22.084;2023-07-13T07:39:38;16;13;
63707;PMS5003;67643;-34.198;22.084;2023-07-13T07:42:07;15;13;
63707;PMS5003;67643;-34.198;22.084;2023-07-13T07:44:35;12;11;
63707;PMS5003;67643;-34.198;22.084;2023-07-13T07:47:04;8;7;
63707;PMS5003;67643;-34.198;22.084;2023-07-13T07:49:33;14;11;
63707;PMS5003;67643;-34.198;22.084;2023-07-13T07:52:01;15;10;
63707;PMS5003;67643;-34.198;22.084;2023-07-13T07:54:30;23;13;
63707;PMS5003;67643;-34.198;22.084;2023-07-13T07:56:59;13;11;
63707;PMS5003;67643;-34.198;22.084;2023-07-13T07:59:28;17;14;
63707;PMS5003;67643;-34.198;22.084;2023-07-13T08:01:56;16;16;
63707;PMS5003;67643;-34.198;22.084;2023-07-13T08:04:24;16;14;
63707;PMS5003;67643;-34.198;22.084;2023-07-13T08:06:53;17;12;
63707;PMS5003;67643;-34.198;22.084;2023-07-13T08:09:22;13;12;
63707;PMS5003;67643;-34.198;22.084;2023-07-13T08:11:50;17;15;
63707;PMS5003;67643;-34.198;22.084;2023-07-13T08:14:19;16;12;
63707;PMS5003;67643;-34.198;22.084;2023-07-13T08:16:48;16;14;
63707;PMS5003;67643;-34.198;22.084;2023-07-13T08:19:16;16;14;
63707;PMS5003;67643;-34.198;22.084;2023-07-13T08:21:45;21;18;
63707;PMS5003;67643;-34.198;22.084;2023-07-13T08:24:13;19;12;
63707;PMS5003;67643;-34.198;22.084;2023-07-13T08:26:43;18;14;
63707;PMS5003;67643;-34.198;22.084;2023-07-13T08:29:12;13;11;
63707;PMS5003;67643;-34.198;22.084;2023-07-13T08:31:41;14;13;
63707;PMS5003;67643;-34.198;22.084;2023-07-13T08:34:09;13;12;
63707;PMS5003;67643;-34.198;22.084;2023-07-13T08:36:38;15;12;
63707;PMS5003;67643;-34.198;22.084;2023-07-13T08:39:07;12;12;
63707;PMS5003;67643;-34.198;22.084;2023-07-13T08:41:35;12;10;
63707;PMS5003;67643;-34.198;22.084;2023-07-13T08:44:04;13;12;
63707;PMS5003;67643;-34.198;22.084;2023-07-13T08:46:46;10;8;
63707;PMS5003;67643;-34.198;22.084;2023-07-13T08:49:17;12;10;
63707;PMS5003;67643;-34.198;22.084;2023-07-13T08:51:49;10;9;
63707;PMS5003;67643;-34.198;22.084;2023-07-13T08:54:23;10;9;
63707;PMS5003;67643;-34.198;22.084;2023-07-13T08:56:55;11;10;
63707;PMS5003;67643;-34.198;22.084;2023-07-13T08:59:26;14;9;
63707;PMS5003;67643;-34.198;22.084;2023-07-13T09:02:00;10;8;
63707;PMS5003;67643;-34.198;22.084;2023-07-13T09:04:50;10;10;
63707;PMS5003;67643;-34.198;22.084;2023-07-13T09:07:26;9;8;
63707;PMS5003;67643;-34.198;22.084;2023-07-13T09:10:18;8;8;
63707;PMS5003;67643;-34.198;22.084;2023-07-13T09:12:57;12;9;
63707;PMS5003;67643;-34.198;22.084;2023-07-13T09:15:35;12;9;
63707;PMS5003;67643;-34.198;22.084;2023-07-13T09:18:09;11;9;
63707;PMS5003;67643;-34.198;22.084;2023-07-13T09:20:46;9;8;
63707;PMS5003;67643;-34.198;22.084;2023-07-13T09:23:25;8;8;
63707;PMS5003;67643;-34.198;22.084;2023-07-13T09:25:58;12;9;
63707;PMS5003;67643;-34.198;22.084;2023-07-13T09:28:34;11;8;
63707;PMS5003;67643;-34.198;22.084;2023-07-13T09:31:09;11;9;
63707;PMS5003;67643;-34.198;22.084;2023-07-13T09:33:41;11;9;
63707;PMS5003;67643;-34.198;22.084;2023-07-13T09:36:16;9;9;
63707;PMS5003;67643;-34.198;22.084;2023-07-13T09:38:47;8;6;
63707;PMS5003;67643;-34.198;22.084;2023-07-13T09:41:23;10;8;
63707;PMS5003;67643;-34.198;22.084;2023-07-13T09:44:06;9;7;
63707;PMS5003;67643;-34.198;22.084;2023-07-13T09:46:37;9;7;
63707;PMS5003;67643;-34.198;22.084;2023-07-13T09:49:11;13;7;
63707;PMS5003;67643;-34.198;22.084;2023-07-13T09:51:40;21;15;
63707;PMS5003;67643;-34.198;22.084;2023-07-13T09:54:17;18;17;
63707;PMS5003;67643;-34.198;22.084;2023-07-13T09:56:47;40;35;
63707;PMS5003;67643;-34.198;22.084;2023-07-13T09:59:21;40;37;
63707;PMS5003;67643;-34.198;22.084;2023-07-13T10:01:51;54;47;
63707;PMS5003;67643;-34.198;22.084;2023-07-13T10:04:22;59;48;
63707;PMS5003;67643;-34.198;22.084;2023-07-13T10:07:04;64;56;
63707;PMS5003;67643;-34.198;22.084;2023-07-13T10:09:33;71;61;
63707;PMS5003;67643;-34.198;22.084;2023-07-13T10:12:02;75;67;
63707;PMS5003;67643;-34.198;22.084;2023-07-13T10:14:31;79;61;
63707;PMS5003;67643;-34.198;22.084;2023-07-13T10:17:00;85;64;
63707;PMS5003;67643;-34.198;22.084;2023-07-13T10:19:31;87;72;
63707;PMS5003;67643;-34.198;22.084;2023-07-13T10:22:09;86;70;
63707;PMS5003;67643;-34.198;22.084;2023-07-13T10:24:41;77;62;
63707;PMS5003;67643;-34.198;22.084;2023-07-13T10:27:13;165;97;
63707;PMS5003;67643;-34.198;22.084;2023-07-13T10:29:45;101;69;
63707;PMS5003;67643;-34.198;22.084;2023-07-13T10:32:15;83;66;
63707;PMS5003;67643;-34.198;22.084;2023-07-13T10:34:46;91;66;
63707;PMS5003;67643;-34.198;22.084;2023-07-13T10:37:16;85;61;
63707;PMS5003;67643;-34.198;22.084;2023-07-13T10:39:49;79;62;
63707;PMS5003;67643;-34.198;22.084;2023-07-13T10:42:25;83;56;
63707;PMS5003;67643;-34.198;22.084;2023-07-13T10:44:58;81;57;
63707;PMS5003;67643;-34.198;22.084;2023-07-13T10:47:26;72;51;
63707;PMS5003;67643;-34.198;22.084;2023-07-13T10:49:56;78;56;
63707;PMS5003;67643;-34.198;22.084;2023-07-13T10:52:43;70;48;
63707;PMS5003;67643;-34.198;22.084;2023-07-13T10:55:55;75;57;
63707;PMS5003;67643;-34.198;22.084;2023-07-13T10:58:29;59;47;
63707;PMS5003;67643;-34.198;22.084;2023-07-13T11:01:03;59;43;
63707;PMS5003;67643;-34.198;22.084;2023-07-13T11:03:36;51;39;
63707;PMS5003;67643;-34.198;22.084;2023-07-13T11:06:15;47;37;
63707;PMS5003;67643;-34.198;22.084;2023-07-13T11:08:57;40;31;
63707;PMS5003;67643;-34.198;22.084;2023-07-13T11:11:37;56;43;
63707;PMS5003;67643;-34.198;22.084;2023-07-13T11:14:14;44;32;
63707;PMS5003;67643;-34.198;22.084;2023-07-13T11:16:55;46;35;
63707;PMS5003;67643;-34.198;22.084;2023-07-13T11:19:29;40;28;
63707;PMS5003;67643;-34.198;22.084;2023-07-13T11:22:16;37;30;
63707;PMS5003;67643;-34.198;22.084;2023-07-13T11:24:52;38;28;
63707;PMS5003;67643;-34.198;22.084;2023-07-13T11:27:33;39;28;
63707;PMS5003;67643;-34.198;22.084;2023-07-13T11:30:38;30;24;
63707;PMS5003;67643;-34.198;22.084;2023-07-13T11:33:10;41;23;
63707;PMS5003;67643;-34.198;22.084;2023-07-13T11:35:44;32;27;
63707;PMS5003;67643;-34.198;22.084;2023-07-13T11:38:17;33;22;
63707;PMS5003;67643;-34.198;22.084;2023-07-13T11:40:48;31;22;
63707;PMS5003;67643;-34.198;22.084;2023-07-13T11:43:20;21;18;
63707;PMS5003;67643;-34.198;22.084;2023-07-13T11:45:49;24;20;
63707;PMS5003;67643;-34.198;22.084;2023-07-13T11:48:21;23;19;
63707;PMS5003;67643;-34.198;22.084;2023-07-13T11:50:52;28;22;
63707;PMS5003;67643;-34.198;22.084;2023-07-13T11:53:26;23;16;
63707;PMS5003;67643;-34.198;22.084;2023-07-13T11:55:57;22;15;
63707;PMS5003;67643;-34.198;22.084;2023-07-13T11:58:26;22;16;
63707;PMS5003;67643;-34.198;22.084;2023-07-13T12:00:56;14;14;
63707;PMS5003;67643;-34.198;22.084;2023-07-13T12:03:28;25;15;
63707;PMS5003;67643;-34.198;22.084;2023-07-13T14:09:15;6;6;
63707;PMS5003;67643;-34.198;22.084;2023-07-13T14:11:45;7;3;
63707;PMS5003;67643;-34.198;22.084;2023-07-13T14:14:18;8;6;
63707;PMS5003;67643;-34.198;22.084;2023-07-13T14:16:51;9;5;
63707;PMS5003;67643;-34.198;22.084;2023-07-13T14:19:20;7;7;
63707;PMS5003;67643;-34.198;22.084;2023-07-13T14:21:49;6;5;
63707;PMS5003;67643;-34.198;22.084;2023-07-13T14:24:17;4;3;
63707;PMS5003;67643;-34.198;22.084;2023-07-13T14:26:46;6;4;
63707;PMS5003;67643;-34.198;22.084;2023-07-13T14:29:17;6;4;
63707;PMS5003;67643;-34.198;22.084;2023-07-13T14:31:46;5;5;
63707;PMS5003;67643;-34.198;22.084;2023-07-13T14:34:14;9;5;
63707;PMS5003;67643;-34.198;22.084;2023-07-13T14:36:43;4;3;
63707;PMS5003;67643;-34.198;22.084;2023-07-13T14:39:14;7;6;
63707;PMS5003;67643;-34.198;22.084;2023-07-13T14:41:44;8;5;
63707;PMS5003;67643;-34.198;22.084;2023-07-13T14:44:13;9;6;
63707;PMS5003;67643;-34.198;22.084;2023-07-13T14:46:43;6;2;
63707;PMS5003;67643;-34.198;22.084;2023-07-13T14:49:14;5;5;
63707;PMS5003;67643;-34.198;22.084;2023-07-13T14:51:48;9;6;
63707;PMS5003;67643;-34.198;22.084;2023-07-13T14:54:17;5;5;
63707;PMS5003;67643;-34.198;22.084;2023-07-13T14:56:45;4;4;
63707;PMS5003;67643;-34.198;22.084;2023-07-13T14:59:14;8;7;
63707;PMS5003;67643;-34.198;22.084;2023-07-13T15:01:43;4;4;
63707;PMS5003;67643;-34.198;22.084;2023-07-13T15:04:12;6;6;
63707;PMS5003;67643;-34.198;22.084;2023-07-13T15:06:57;4;4;
63707;PMS5003;67643;-34.198;22.084;2023-07-13T15:09:27;12;6;
63707;PMS5003;67643;-34.198;22.084;2023-07-13T15:11:56;4;4;
63707;PMS5003;67643;-34.198;22.084;2023-07-13T15:14:26;9;3;
63707;PMS5003;67643;-34.198;22.084;2023-07-13T15:16:55;8;6;
63707;PMS5003;67643;-34.198;22.084;2023-07-13T15:19:23;9;5;
63707;PMS5003;67643;-34.198;22.084;2023-07-13T15:21:53;4;4;
63707;PMS5003;67643;-34.198;22.084;2023-07-13T15:24:23;6;4;
63707;PMS5003;67643;-34.198;22.084;2023-07-13T15:26:52;11;5;
63707;PMS5003;67643;-34.198;22.084;2023-07-13T15:29:20;6;6;
63707;PMS5003;67643;-34.198;22.084;2023-07-13T15:31:48;7;7;
63707;PMS5003;67643;-34.198;22.084;2023-07-13T15:34:18;9;5;
63707;PMS5003;67643;-34.198;22.084;2023-07-13T15:36:51;7;5;
63707;PMS5003;67643;-34.198;22.084;2023-07-13T15:39:20;7;4;
63707;PMS5003;67643;-34.198;22.084;2023-07-13T15:41:48;5;5;
63707;PMS5003;67643;-34.198;22.084;2023-07-13T15:44:22;4;4;
63707;PMS5003;67643;-34.198;22.084;2023-07-13T15:46:53;7;4;
63707;PMS5003;67643;-34.198;22.084;2023-07-13T15:49:22;5;5;
63707;PMS5003;67643;-34.198;22.084;2023-07-13T15:51:51;6;6;
63707;PMS5003;67643;-34.198;22.084;2023-07-13T15:54:19;6;4;
63707;PMS5003;67643;-34.198;22.084;2023-07-13T15:56:51;9;6;
63707;PMS5003;67643;-34.198;22.084;2023-07-13T15:59:21;6;4;
63707;PMS5003;67643;-34.198;22.084;2023-07-13T16:01:50;4;4;
63707;PMS5003;67643;-34.198;22.084;2023-07-13T16:04:18;7;5;
63707;PMS5003;67643;-34.198;22.084;2023-07-13T16:06:47;9;4;
63707;PMS5003;67643;-34.198;22.084;2023-07-13T16:09:18;7;6;
63707;PMS5003;67643;-34.198;22.084;2023-07-13T16:11:50;8;6;
63707;PMS5003;67643;-34.198;22.084;2023-07-13T16:14:18;10;7;
63707;PMS5003;67643;-34.198;22.084;2023-07-13T16:16:47;12;5;
63707;PMS5003;67643;-34.198;22.084;2023-07-13T16:19:15;11;5;
63707;PMS5003;67643;-34.198;22.084;2023-07-13T16:21:44;10;5;
63707;PMS5003;67643;-34.198;22.084;2023-07-13T16:24:17;8;6;
63707;PMS5003;67643;-34.198;22.084;2023-07-13T16:26:48;13;11;
63707;PMS5003;67643;-34.198;22.084;2023-07-13T16:29:18;13;13;
63707;PMS5003;67643;-34.198;22.084;2023-07-13T16:31:56;12;9;
63707;PMS5003;67643;-34.198;22.084;2023-07-13T16:34:26;17;15;
63707;PMS5003;67643;-34.198;22.084;2023-07-13T16:36:55;17;13;
63707;PMS5003;67643;-34.198;22.084;2023-07-13T16:39:23;21;21;
63707;PMS5003;67643;-34.198;22.084;2023-07-13T16:41:54;27;25;
63707;PMS5003;67643;-34.198;22.084;2023-07-13T16:44:25;36;32;
63707;PMS5003;67643;-34.198;22.084;2023-07-13T16:46:59;39;32;
63707;PMS5003;67643;-34.198;22.084;2023-07-13T16:49:29;49;41;
63707;PMS5003;67643;-34.198;22.084;2023-07-13T16:51:58;45;41;
63707;PMS5003;67643;-34.198;22.084;2023-07-13T16:54:28;44;40;
63707;PMS5003;67643;-34.198;22.084;2023-07-13T16:56:58;55;45;
63707;PMS5003;67643;-34.198;22.084;2023-07-13T16:59:29;62;53;
63707;PMS5003;67643;-34.198;22.084;2023-07-13T17:02:02;60;52;
63707;PMS5003;67643;-34.198;22.084;2023-07-13T17:04:51;67;62;
63707;PMS5003;67643;-34.198;22.084;2023-07-13T17:07:19;61;57;
63707;PMS5003;67643;-34.198;22.084;2023-07-13T17:09:47;60;52;
63707;PMS5003;67643;-34.198;22.084;2023-07-13T17:12:17;57;48;
63707;PMS5003;67643;-34.198;22.084;2023-07-13T17:14:45;52;45;
63707;PMS5003;67643;-34.198;22.084;2023-07-13T17:17:14;49;49;
63707;PMS5003;67643;-34.198;22.084;2023-07-13T17:19:46;52;50;
63707;PMS5003;67643;-34.198;22.084;2023-07-13T17:22:18;48;44;
63707;PMS5003;67643;-34.198;22.084;2023-07-13T17:24:47;49;42;
63707;PMS5003;67643;-34.198;22.084;2023-07-13T17:27:16;47;45;
63707;PMS5003;67643;-34.198;22.084;2023-07-13T17:29:44;45;43;
63707;PMS5003;67643;-34.198;22.084;2023-07-13T17:32:13;45;38;
63707;PMS5003;67643;-34.198;22.084;2023-07-13T17:34:44;39;36;
63707;PMS5003;67643;-34.198;22.084;2023-07-13T17:37:13;35;32;
63707;PMS5003;67643;-34.198;22.084;2023-07-13T17:39:44;35;33;
63707;PMS5003;67643;-34.198;22.084;2023-07-13T17:42:13;32;30;
63707;PMS5003;67643;-34.198;22.084;2023-07-13T17:44:41;47;35;
63707;PMS5003;67643;-34.198;22.084;2023-07-13T17:47:11;37;34;
63707;PMS5003;67643;-34.198;22.084;2023-07-13T17:49:50;37;32;
63707;PMS5003;67643;-34.198;22.084;2023-07-13T17:52:19;40;37;
63707;PMS5003;67643;-34.198;22.084;2023-07-13T17:54:47;38;31;
63707;PMS5003;67643;-34.198;22.084;2023-07-13T17:57:15;34;31;
63707;PMS5003;67643;-34.198;22.084;2023-07-13T17:59:43;33;29;
63707;PMS5003;67643;-34.198;22.084;2023-07-13T18:02:14;34;32;
63707;PMS5003;67643;-34.198;22.084;2023-07-13T18:04:46;32;28;
63707;PMS5003;67643;-34.198;22.084;2023-07-13T18:07:15;32;26;
63707;PMS5003;67643;-34.198;22.084;2023-07-13T18:09:44;26;23;
63707;PMS5003;67643;-34.198;22.084;2023-07-13T18:12:15;27;23;
63707;PMS5003;67643;-34.198;22.084;2023-07-13T18:14:43;28;24;
63707;PMS5003;67643;-34.198;22.084;2023-07-13T18:17:12;22;21;
63707;PMS5003;67643;-34.198;22.084;2023-07-13T18:19:43;25;24;
63707;PMS5003;67643;-34.198;22.084;2023-07-13T18:22:14;28;25;
63707;PMS5003;67643;-34.198;22.084;2023-07-13T18:24:43;29;21;
63707;PMS5003;67643;-34.198;22.084;2023-07-13T18:27:11;25;20;
63707;PMS5003;67643;-34.198;22.084;2023-07-13T18:29:40;26;20;
63707;PMS5003;67643;-34.198;22.084;2023-07-13T18:32:09;24;21;
63707;PMS5003;67643;-34.198;22.084;2023-07-13T18:34:44;29;19;
63707;PMS5003;67643;-34.198;22.084;2023-07-13T18:37:15;25;21;
63707;PMS5003;67643;-34.198;22.084;2023-07-13T18:39:48;23;21;
63707;PMS5003;67643;-34.198;22.084;2023-07-13T18:42:17;25;19;
63707;PMS5003;67643;-34.198;22.084;2023-07-13T18:44:45;22;21;
63707;PMS5003;67643;-34.198;22.084;2023-07-13T18:47:15;25;20;
63707;PMS5003;67643;-34.198;22.084;2023-07-13T18:49:47;26;19;
63707;PMS5003;67643;-34.198;22.084;2023-07-13T18:52:18;26;17;
63707;PMS5003;67643;-34.198;22.084;2023-07-13T18:54:47;21;18;
63707;PMS5003;67643;-34.198;22.084;2023-07-13T18:57:17;20;14;
63707;PMS5003;67643;-34.198;22.084;2023-07-13T18:59:45;24;18;
63707;PMS5003;67643;-34.198;22.084;2023-07-13T19:02:14;17;16;
63707;PMS5003;67643;-34.198;22.084;2023-07-13T19:04:44;18;16;
63707;PMS5003;67643;-34.198;22.084;2023-07-13T19:07:12;17;15;
63707;PMS5003;67643;-34.198;22.084;2023-07-13T19:09:40;16;11;
63707;PMS5003;67643;-34.198;22.084;2023-07-13T19:12:14;14;12;
63707;PMS5003;67643;-34.198;22.084;2023-07-13T19:14:45;14;13;
63707;PMS5003;67643;-34.198;22.084;2023-07-13T19:17:15;14;12;
63707;PMS5003;67643;-34.198;22.084;2023-07-13T19:19:43;16;16;
63707;PMS5003;67643;-34.198;22.084;2023-07-13T19:22:12;16;15;
63707;PMS5003;67643;-34.198;22.084;2023-07-13T19:24:46;13;13;
63707;PMS5003;67643;-34.198;22.084;2023-07-13T19:27:15;11;11;
63707;PMS5003;67643;-34.198;22.084;2023-07-13T19:29:44;11;10;
63707;PMS5003;67643;-34.198;22.084;2023-07-13T19:32:12;14;12;
63707;PMS5003;67643;-34.198;22.084;2023-07-13T19:34:41;15;11;
63707;PMS5003;67643;-34.198;22.084;2023-07-13T19:37:13;14;11;
63707;PMS5003;67643;-34.198;22.084;2023-07-13T19:39:47;17;13;
63707;PMS5003;67643;-34.198;22.084;2023-07-13T19:42:16;11;10;
63707;PMS5003;67643;-34.198;22.084;2023-07-13T19:44:47;13;10;
63707;PMS5003;67643;-34.198;22.084;2023-07-13T19:47:18;16;13;
63707;PMS5003;67643;-34.198;22.084;2023-07-13T19:49:47;16;10;
63707;PMS5003;67643;-34.198;22.084;2023-07-13T19:52:17;25;17;
63707;PMS5003;67643;-34.198;22.084;2023-07-13T19:54:48;13;11;
63707;PMS5003;67643;-34.198;22.084;2023-07-13T19:57:18;20;13;
63707;PMS5003;67643;-34.198;22.084;2023-07-13T19:59:49;21;17;
63707;PMS5003;67643;-34.198;22.084;2023-07-13T20:02:18;26;23;
63707;PMS5003;67643;-34.198;22.084;2023-07-13T20:04:48;28;19;
63707;PMS5003;67643;-34.198;22.084;2023-07-13T20:07:17;26;22;
63707;PMS5003;67643;-34.198;22.084;2023-07-13T20:09:48;31;22;
63707;PMS5003;67643;-34.198;22.084;2023-07-13T22:11:21;18;14;
63707;PMS5003;67643;-34.198;22.084;2023-07-13T22:13:51;21;11;
63707;PMS5003;67643;-34.198;22.084;2023-07-13T22:16:21;15;13;
63707;PMS5003;67643;-34.198;22.084;2023-07-13T22:18:52;17;12;